Beverly Manor, Illinois
Current Conditions -  °F | °C
As of 8:54 PM on Wednesday 22 Oct 2014 (Local Time) from KPIA Reporting Station
Clear Clear  
Wind Chill: 11°   Ceiling: Unl
Heat Index: 11°   Visibility: 10mi
Dew Point:   Wind: 5mph
Humidity: 56%   Direction: 120°ESE
Pressure: 30.25"   Gusts: NA
Location:  40.703°N, 89.4173°W
Report Text: KPIA 230154Z 12004KT 10SM CLR 11/02 A3025 RMK AO2 SLP245 T01060022
Loading
Personal Weather Stations






























Interactive Weather Map
Tropical Storm Tracking
New forecast layout! Learn more

10-Day Weather Forecast

Advertisements
Track Severe Weather on mobile